createdAt,value
2023-02-24T00:02:36.387Z,0
2023-02-24T00:08:03.111Z,0
2023-02-24T00:13:43.245Z,0
2023-02-24T00:19:35.745Z,0
2023-02-24T00:24:44.104Z,0
2023-02-24T00:30:24.318Z,0
2023-02-24T00:36:09.045Z,0
2023-02-24T00:41:43.074Z,0
2023-02-24T00:46:54.529Z,0
2023-02-24T00:52:35.395Z,0
2023-02-24T00:58:04.952Z,0
2023-02-24T01:03:37.603Z,0
2023-02-24T01:09:19.012Z,2.4
2023-02-24T01:14:55.500Z,4.8
2023-02-24T01:20:38.532Z,0
2023-02-24T01:26:00.739Z,2.4
2023-02-24T01:31:39.591Z,0
2023-02-24T01:37:20.189Z,0
2023-02-24T01:42:46.866Z,0
2023-02-24T01:48:13.712Z,0
2023-02-24T01:54:00.889Z,0
2023-02-24T01:59:33.229Z,0
2023-02-24T02:04:52.621Z,0
2023-02-24T02:10:23.415Z,0
2023-02-24T02:15:54.753Z,0
2023-02-24T02:21:47.415Z,0
2023-02-24T02:27:10.621Z,0
2023-02-24T02:32:25.903Z,0
2023-02-24T02:38:14.184Z,0
2023-02-24T02:43:38.385Z,0
2023-02-24T02:49:22.204Z,0
2023-02-24T02:55:03.348Z,0
2023-02-24T03:00:39.976Z,0
2023-02-24T03:06:01.793Z,0
2023-02-24T03:11:30.871Z,0
2023-02-24T03:16:58.190Z,0
2023-02-24T03:22:33.925Z,0
2023-02-24T03:28:08.634Z,0
2023-02-24T03:33:38.856Z,0
2023-02-24T03:39:23.368Z,0
2023-02-24T03:45:03.405Z,0
2023-02-24T03:50:18.128Z,0
2023-02-24T03:55:44.934Z,0
2023-02-24T04:01:24.724Z,0
2023-02-24T04:07:07.379Z,0
2023-02-24T04:12:27.373Z,2.4
2023-02-24T04:18:20.871Z,0
2023-02-24T04:23:30.048Z,0
2023-02-24T04:29:18.790Z,0
2023-02-24T04:34:48.223Z,0
2023-02-24T04:40:16.662Z,0
2023-02-24T04:45:51.716Z,0
2023-02-24T04:51:38.950Z,0
2023-02-24T04:56:59.177Z,0
2023-02-24T05:02:33.605Z,0
2023-02-24T05:07:55.886Z,0
2023-02-24T05:13:29.958Z,0
2023-02-24T05:19:17.875Z,0
2023-02-24T05:24:57.997Z,0
2023-02-24T05:30:09.756Z,0
2023-02-24T05:58:15.113Z,0
2023-02-24T06:09:30.558Z,0
2023-02-24T06:31:30.033Z,0
2023-02-24T06:37:16.537Z,0
2023-02-24T06:53:54.682Z,3.6
2023-02-24T06:59:13.573Z,0
2023-02-24T07:04:45.824Z,0
2023-02-24T07:10:17.273Z,0
2023-02-24T07:43:47.182Z,0
2023-02-24T07:49:34.032Z,0
2023-02-24T07:55:01.023Z,0
2023-02-24T08:00:27.754Z,0
2023-02-24T08:06:12.304Z,0
2023-02-24T08:11:37.498Z,0
2023-02-24T08:17:03.321Z,0
2023-02-24T08:22:34.841Z,0
2023-02-24T08:28:25.060Z,0
2023-02-24T08:34:02.007Z,0
2023-02-24T08:39:36.595Z,0
2023-02-24T08:45:01.704Z,0
2023-02-24T08:50:52.576Z,0
2023-02-24T08:56:02.210Z,0
2023-02-24T09:02:04.480Z,0
2023-02-24T09:07:15.353Z,0
2023-02-24T09:13:07.529Z,0
2023-02-24T09:18:32.806Z,0
2023-02-24T09:23:54.513Z,0
2023-02-24T09:40:45.570Z,0
2023-02-24T10:25:21.034Z,0
2023-02-24T10:36:37.475Z,3.6
2023-02-24T10:42:27.665Z,2.4
2023-02-24T10:58:50.960Z,3.6
2023-02-24T11:10:00.909Z,0
2023-02-24T11:15:49.405Z,0
2023-02-24T11:32:40.270Z,5.9
2023-02-24T12:28:44.743Z,7.2
2023-02-24T12:34:00.117Z,8.4
2023-02-24T12:39:42.148Z,7.2
2023-02-24T12:45:04.415Z,9.6
2023-02-24T12:50:59.681Z,9.6
2023-02-24T13:53:02.083Z,10.7
2023-02-24T14:15:25.685Z,5.9
2023-02-24T14:20:59.576Z,5.9
2023-02-24T14:26:48.091Z,5.9
2023-02-24T14:37:55.676Z,11.9
2023-02-24T14:49:08.779Z,13.2
2023-02-24T14:54:32.367Z,14.4
2023-02-24T15:00:11.898Z,11.9
2023-02-24T15:06:06.139Z,10.7
2023-02-24T15:17:02.478Z,10.7
2023-02-24T15:33:40.560Z,10.7
2023-02-24T15:39:13.746Z,13.2
2023-02-24T15:45:04.397Z,11.9
2023-02-24T15:50:33.003Z,10.7
2023-02-24T16:13:05.309Z,5.9
2023-02-24T16:24:28.217Z,9.6
2023-02-24T16:35:40.738Z,10.7
2023-02-24T16:52:27.599Z,8.4
2023-02-24T17:14:55.532Z,11.9
2023-02-24T17:42:33.091Z,9.6
2023-02-24T17:53:42.374Z,18
2023-02-24T17:59:14.725Z,19.2
2023-02-24T18:04:55.342Z,15.6
2023-02-24T18:10:44.065Z,11.9
2023-02-24T18:16:04.645Z,3.6
2023-02-24T18:21:41.682Z,3.6
2023-02-24T18:27:30.462Z,11.9
2023-02-24T18:32:52.258Z,14.4
2023-02-24T18:38:42.888Z,7.2
2023-02-24T18:44:15.601Z,0
2023-02-24T18:49:32.785Z,3.6
2023-02-24T18:55:13.538Z,16.8
2023-02-24T19:00:40.150Z,14.4
2023-02-24T19:06:27.896Z,9.6
2023-02-24T19:11:49.268Z,9.6
2023-02-24T19:17:37.395Z,2.4
2023-02-24T19:23:17.080Z,0
2023-02-24T19:28:52.771Z,3.6
2023-02-24T19:34:25.560Z,0
2023-02-24T19:39:40.232Z,3.6
2023-02-24T19:45:16.246Z,0
2023-02-24T19:50:43.002Z,0
2023-02-24T19:56:32.230Z,0
2023-02-24T20:01:48.594Z,15.6
2023-02-24T20:07:24.736Z,11.9
2023-02-24T20:13:09.870Z,5.9
2023-02-24T20:18:30.752Z,2.4
2023-02-24T20:24:13.813Z,0
2023-02-24T20:30:00.383Z,4.8
2023-02-24T20:35:27.689Z,8.4
2023-02-24T20:41:06.118Z,5.9
2023-02-24T20:46:31.315Z,0
2023-02-24T20:52:15.606Z,0
2023-02-24T20:57:42.468Z,0
2023-02-24T21:03:11.875Z,2.4
2023-02-24T21:08:55.715Z,0
2023-02-24T21:14:19.230Z,4.8
2023-02-24T21:19:47.108Z,3.6
2023-02-24T21:25:24.999Z,4.8
2023-02-24T21:30:54.186Z,4.8
2023-02-24T21:36:33.355Z,13.2
2023-02-24T21:42:08.240Z,9.6
2023-02-24T21:47:59.237Z,7.2
2023-02-24T21:53:23.472Z,4.8
2023-02-24T21:59:00.120Z,7.2
2023-02-24T22:04:41.276Z,7.2
2023-02-24T22:10:00.692Z,8.4
2023-02-24T22:15:44.459Z,8.4
2023-02-24T22:21:27.963Z,8.4
2023-02-24T22:27:07.181Z,3.6
2023-02-24T22:32:15.192Z,3.6
2023-02-24T22:38:05.112Z,5.9
2023-02-24T22:43:33.268Z,5.9
2023-02-24T22:49:11.215Z,5.9
2023-02-24T22:54:45.791Z,5.9
2023-02-24T23:00:29.673Z,4.8
2023-02-24T23:05:39.965Z,4.8
2023-02-24T23:11:21.810Z,7.2
2023-02-24T23:17:06.242Z,4.8
2023-02-24T23:22:27.564Z,4.8
2023-02-24T23:28:05.695Z,4.8
2023-02-24T23:33:54.136Z,4.8
2023-02-24T23:39:13.944Z,5.9
2023-02-24T23:44:51.322Z,7.2
2023-02-24T23:50:40.344Z,8.4
2023-02-24T23:56:13.917Z,8.4
